Time;durP1;ratioP1;P1;durP2;ratioP2;P2;SDS_P1;SDS_P2;PMS_P1;PMS_P2;Temp;Humidity;BMP_temperature;BMP_pressure;BME280_temperature;BME280_humidity;BME280_pressure;Samples;Min_cycle;Max_cycle;Signal;HPM_P1;HPM_P2
2023/01/24 06:14:06;;;;;;;12.10;8.10;;;;;;;1.25;100.00;101679.55;106000;1247;111829;-62
2023/01/24 06:16:44;;;;;;;14.60;8.20;;;;;;;1.16;100.00;101682.42;105948;1244;60176;-61
2023/01/24 06:19:13;;;;;;;10.40;7.90;;;;;;;1.11;100.00;101686.61;106006;1245;72351;-60
2023/01/24 06:21:49;;;;;;;12.50;8.50;;;;;;;1.09;100.00;101685.67;105996;1259;69727;-61
2023/01/24 06:24:26;;;;;;;13.70;9.20;;;;;;;1.06;100.00;101690.08;105934;1248;72211;-61
2023/01/24 06:27:13;;;;;;;13.70;8.30;;;;;;;1.02;100.00;101688.58;106058;1247;59347;-62
2023/01/24 06:29:41;;;;;;;11.40;7.80;;;;;;;1.00;100.00;101694.05;106138;1248;59651;-62
2023/01/24 06:32:12;;;;;;;12.00;7.50;;;;;;;0.98;100.00;101696.42;106011;1244;72028;-66
2023/01/24 06:34:52;;;;;;;12.50;7.70;;;;;;;0.91;100.00;101699.83;106176;1248;68968;-63
2023/01/24 06:37:31;;;;;;;12.40;8.70;;;;;;;0.86;100.00;101702.98;107092;1237;72811;-63
2023/01/24 06:39:58;;;;;;;14.30;8.70;;;;;;;0.82;100.00;101704.23;106985;1235;60529;-63
2023/01/24 06:42:26;;;;;;;11.70;8.90;;;;;;;0.81;100.00;101704.53;107174;1240;60178;-63
2023/01/24 06:44:53;;;;;;;10.80;8.70;;;;;;;0.77;100.00;101702.52;107366;1236;72253;-64
2023/01/24 06:47:20;;;;;;;13.60;8.70;;;;;;;0.75;100.00;101699.36;106915;1236;68834;-65
2023/01/24 06:49:47;;;;;;;14.30;9.20;;;;;;;0.70;100.00;101697.83;107129;1236;71543;-65
2023/01/24 06:52:16;;;;;;;13.20;7.90;;;;;;;0.63;100.00;101698.13;106880;1235;62520;-65
2023/01/24 06:54:43;;;;;;;;;;;;;;;0.62;100.00;101704.66;107219;1238;59662;-64
2023/01/24 06:57:11;;;;;;;13.60;8.60;;;;;;;0.60;100.00;101700.80;106762;1240;74036;-64
2023/01/24 06:59:39;;;;;;;13.30;8.70;;;;;;;0.55;100.00;101698.56;107205;1240;69998;-65
2023/01/24 07:02:06;;;;;;;12.70;8.90;;;;;;;0.55;100.00;101699.94;106935;1247;72212;-64
2023/01/24 07:04:33;;;;;;;17.20;9.60;;;;;;;0.57;100.00;101704.67;106959;1233;60331;-66
2023/01/24 07:07:00;;;;;;;16.80;9.90;;;;;;;0.62;100.00;101705.02;106972;1232;59754;-63
2023/01/24 07:09:28;;;;;;;14.20;8.70;;;;;;;0.66;100.00;101707.18;106640;1247;73700;-64
2023/01/24 07:11:58;;;;;;;16.60;9.50;;;;;;;0.70;100.00;101708.17;106989;1236;68618;-65
2023/01/24 07:14:26;;;;;;;14.20;9.40;;;;;;;0.74;100.00;101708.30;106483;1240;73400;-64
2023/01/24 07:16:55;;;;;;;12.80;9.30;;;;;;;0.75;100.00;101703.50;106676;1241;59966;-63
2023/01/24 07:19:24;;;;;;;14.50;9.40;;;;;;;0.77;100.00;101702.55;106986;1240;59683;-65
2023/01/24 07:21:53;;;;;;;12.30;8.70;;;;;;;0.76;100.00;101699.73;106486;1239;74136;-64
2023/01/24 07:24:23;;;;;;;12.80;9.50;;;;;;;0.76;100.00;101703.02;106882;1240;69387;-64
2023/01/24 07:26:50;;;;;;;12.00;8.50;;;;;;;0.76;100.00;101705.77;106896;1247;71899;-63
2023/01/24 07:29:18;;;;;;;13.60;8.50;;;;;;;0.77;100.00;101706.35;107043;1237;61173;-65
2023/01/24 07:31:49;;;;;;;9.20;7.50;;;;;;;0.81;100.00;101708.69;106751;1233;59728;-64
2023/01/24 07:34:17;;;;;;;13.90;8.20;;;;;;;0.85;100.00;101708.27;106564;1234;73214;-63
2023/01/24 07:36:45;;;;;;;12.00;8.90;;;;;;;0.88;100.00;101709.06;107073;1247;70058;-63
2023/01/24 07:39:12;;;;;;;12.10;8.50;;;;;;;0.91;100.00;101710.20;107023;1235;72879;-62
2023/01/24 07:41:43;;;;;;;12.20;8.30;;;;;;;0.87;100.00;101708.86;106569;1247;61465;-63
2023/01/24 07:44:13;;;;;;;14.00;9.50;;;;;;;0.86;100.00;101710.72;106768;1238;59705;-63
2023/01/24 07:46:40;;;;;;;12.20;9.20;;;;;;;0.87;100.00;101711.96;106971;1236;72329;-63
2023/01/24 07:49:07;;;;;;;15.50;8.70;;;;;;;0.88;100.00;101711.83;106975;1247;70826;-65
2023/01/24 07:51:35;;;;;;;14.40;8.70;;;;;;;0.89;100.00;101712.20;107620;1234;71891;-65
2023/01/24 07:54:02;;;;;;;;;;;;;;;0.91;100.00;101710.55;106774;1241;60215;-68
2023/01/24 07:56:30;;;;;;;14.30;9.70;;;;;;;0.91;100.00;101708.63;107298;1233;59746;-65
2023/01/24 07:58:59;;;;;;;15.30;10.00;;;;;;;0.95;100.00;101709.80;107169;1244;73140;-65
2023/01/24 08:01:26;;;;;;;13.80;10.00;;;;;;;0.99;100.00;101708.19;107045;1233;71128;-66
2023/01/24 08:03:55;;;;;;;15.30;10.70;;;;;;;1.03;100.00;101710.38;106985;1247;72446;-66
2023/01/24 08:06:22;;;;;;;13.50;9.80;;;;;;;1.04;100.00;101703.84;107034;1235;61337;-70
2023/01/24 08:08:50;;;;;;;13.30;9.70;;;;;;;1.01;100.00;101708.76;106626;1242;61195;-70
2023/01/24 08:11:17;;;;;;;13.00;9.40;;;;;;;0.96;100.00;101713.80;107397;1236;72610;-62
2023/01/24 08:14:10;;;;;;;13.10;8.90;;;;;;;0.95;100.00;101712.90;109233;1235;69638;-58
2023/01/24 08:16:39;;;;;;;13.00;8.90;;;;;;;0.97;100.00;101712.61;107477;1238;73585;-61
2023/01/24 08:19:07;;;;;;;12.20;8.30;;;;;;;0.96;100.00;101709.45;106979;1235;62488;-62
2023/01/24 08:21:34;;;;;;;13.20;8.80;;;;;;;0.94;100.00;101710.27;106839;1235;59985;-63
2023/01/24 08:24:02;;;;;;;12.30;9.10;;;;;;;0.94;100.00;101713.89;107372;1238;74105;-61
2023/01/24 10:19:24;;;;;;;6.80;5.40;;;;;;;-1.38;100.00;101652.64;103855;1292;600827;-57
2023/01/24 10:22:14;;;;;;;11.00;8.50;;;;;;;-0.52;100.00;101656.48;103323;1269;61441;-56
2023/01/24 10:24:47;;;;;;;16.50;11.20;;;;;;;-0.21;100.00;101648.88;103921;1258;59603;-56
2023/01/24 10:27:43;;;;;;;21.00;13.50;;;;;;;-0.07;100.00;101644.70;104036;1262;72559;-56
2023/01/24 10:30:16;;;;;;;22.40;14.20;;;;;;;0.04;100.00;101633.13;104252;1262;69385;-60
2023/01/24 10:32:45;;;;;;;20.20;13.10;;;;;;;0.14;100.00;101630.17;104499;1259;108898;-57
2023/01/24 10:35:20;;;;;;;18.30;12.00;;;;;;;0.25;100.00;101631.23;104437;1259;62676;-56
2023/01/24 10:37:55;;;;;;;17.80;12.40;;;;;;;0.34;100.00;101633.04;104323;1261;59322;-56
2023/01/24 10:40:26;;;;;;;19.60;12.50;;;;;;;0.46;100.00;101629.59;104182;1260;71624;-57
2023/01/24 10:42:55;;;;;;;16.10;11.50;;;;;;;0.57;100.00;101625.98;104417;1260;70394;-57
2023/01/24 10:45:46;;;;;;;16.90;12.70;;;;;;;0.63;100.00;101621.33;104238;1259;72450;-56
2023/01/24 10:48:24;;;;;;;22.30;12.30;;;;;;;0.68;100.00;101620.44;104619;1260;61446;-58
2023/01/24 10:50:52;;;;;;;20.40;13.30;;;;;;;0.74;100.00;101618.54;104651;1260;60475;-57
2023/01/24 10:53:25;;;;;;;20.00;13.60;;;;;;;0.85;100.00;101616.59;104477;1259;74075;-57
2023/01/24 10:55:59;;;;;;;21.10;12.40;;;;;;;0.90;100.00;101611.04;104623;1259;68772;-60
2023/01/24 10:58:40;;;;;;;20.50;13.10;;;;;;;0.93;100.00;101609.75;104479;1261;72300;-56
2023/01/24 11:01:18;;;;;;;15.70;11.00;;;;;;;0.97;100.00;101609.01;104463;1261;60177;-57
2023/01/24 11:03:48;;;;;;;14.80;11.30;;;;;;;0.93;100.00;101603.53;104649;1260;61062;-57
2023/01/24 11:06:27;;;;;;;15.10;11.60;;;;;;;0.95;100.00;101604.82;104357;1270;72009;-56
2023/01/24 11:09:02;;;;;;;13.70;10.30;;;;;;;1.00;100.00;101598.01;104412;1260;69868;-55
2023/01/24 11:11:31;;;;;;;16.30;11.60;;;;;;;1.06;100.00;101593.87;104918;1259;72891;-56
2023/01/24 11:14:02;;;;;;;16.20;11.10;;;;;;;1.11;100.00;101593.66;104794;1262;60085;-60
2023/01/24 11:16:42;;;;;;;16.30;12.00;;;;;;;1.15;100.00;101589.96;104491;1259;59858;-55
2023/01/24 11:19:33;;;;;;;17.30;11.50;;;;;;;1.20;100.00;101588.70;104520;1261;72192;-56
2023/01/24 11:22:26;;;;;;;16.40;12.10;;;;;;;1.20;100.00;101589.77;104719;1266;68612;-56
2023/01/24 11:24:56;;;;;;;19.10;12.00;;;;;;;1.24;100.00;101591.77;104532;1254;72014;-57
2023/01/24 11:27:27;;;;;;;19.30;12.10;;;;;;;1.30;100.00;101585.88;104699;1273;61145;-57
2023/01/24 11:30:06;;;;;;;20.50;13.00;;;;;;;1.37;100.00;101585.70;104464;1261;59666;-58
2023/01/24 11:32:38;;;;;;;15.20;10.70;;;;;;;1.41;100.00;101583.04;104780;1254;72477;-58
2023/01/24 11:35:13;;;;;;;13.10;11.00;;;;;;;1.41;100.00;101584.09;104616;1254;69902;-59
2023/01/24 11:37:52;;;;;;;13.10;9.70;;;;;;;1.40;100.00;101583.70;104954;1254;72580;-59
2023/01/24 11:40:44;;;;;;;16.00;10.70;;;;;;;1.38;100.00;101579.84;104618;1259;60473;-60
2023/01/24 11:43:25;;;;;;;13.10;9.90;;;;;;;1.35;100.00;101579.95;105118;1266;59637;-57
2023/01/24 11:46:14;;;;;;;18.50;12.50;;;;;;;1.36;100.00;101579.29;104973;1254;73044;-59
2023/01/24 11:49:04;;;;;;;15.80;11.30;;;;;;;1.41;100.00;101582.16;104468;1260;68994;-58
2023/01/24 11:51:57;;;;;;;19.70;12.00;;;;;;;1.46;100.00;101582.30;105167;1258;73542;-56
2023/01/24 11:54:43;;;;;;;18.40;13.40;;;;;;;1.48;100.00;101576.64;104667;1255;60166;-58
2023/01/24 11:57:17;;;;;;;20.00;11.90;;;;;;;1.48;100.00;101576.31;104654;1258;60699;-57
2023/01/24 12:00:03;;;;;;;15.70;11.20;;;;;;;1.47;100.00;101574.36;104402;1260;73607;-58
2023/01/24 12:03:06;;;;;;;17.70;10.40;;;;;;;1.46;100.00;101574.52;104516;1260;68473;-56
2023/01/24 12:05:47;;;;;;;19.30;11.50;;;;;;;1.42;100.00;101573.05;104580;1257;72694;-56
2023/01/24 12:08:27;;;;;;;15.90;10.40;;;;;;;1.42;100.00;101575.14;104605;1254;59681;-59
2023/01/24 12:11:38;;;;;;;13.60;10.10;;;;;;;1.44;100.00;101575.36;104544;1260;60449;-60
2023/01/24 12:14:33;;;;;;;12.90;9.60;;;;;;;1.39;100.00;101575.22;104020;1274;72498;-59
2023/01/24 12:17:24;;;;;;;13.30;9.60;;;;;;;1.33;100.00;101573.69;104289;1265;70341;-59
2023/01/24 12:20:32;;;;;;;15.60;10.90;;;;;;;1.35;100.00;101577.70;104268;1270;72461;-62
2023/01/24 12:23:09;;;;;;;13.00;9.70;;;;;;;1.41;100.00;101578.02;104527;1255;59960;-60
2023/01/24 12:25:42;;;;;;;12.80;9.80;;;;;;;1.44;100.00;101578.29;104198;1254;59749;-60
2023/01/24 12:28:14;;;;;;;18.60;11.40;;;;;;;1.47;100.00;101576.10;104365;1264;72709;-57
2023/01/24 12:30:49;;;;;;;13.80;10.30;;;;;;;1.44;100.00;101579.48;104370;1273;69873;-58
2023/01/24 12:33:40;;;;;;;13.00;10.00;;;;;;;1.41;100.00;101579.58;104404;1254;72082;-60
2023/01/24 12:36:19;;;;;;;14.90;11.00;;;;;;;1.39;100.00;101579.02;104904;1254;60367;-61
2023/01/24 12:38:49;;;;;;;11.50;9.50;;;;;;;1.37;100.00;101580.35;104386;1255;60249;-60
2023/01/24 12:41:36;;;;;;;14.90;10.40;;;;;;;1.36;100.00;101581.36;104628;1263;73074;-60
2023/01/24 12:44:37;;;;;;;15.50;10.50;;;;;;;1.37;100.00;101580.70;104925;1254;70637;-60
2023/01/24 12:47:35;;;;;;;18.80;10.90;;;;;;;1.41;100.00;101579.41;104483;1268;72580;-60
2023/01/24 12:50:17;;;;;;;19.60;11.00;;;;;;;1.45;100.00;101581.91;104671;1254;60272;-58
2023/01/24 12:53:05;;;;;;;14.90;10.20;;;;;;;1.45;100.00;101585.75;104552;1260;59775;-60
2023/01/24 12:55:48;;;;;;;15.30;10.00;;;;;;;1.46;100.00;101584.90;104502;1264;72209;-58
2023/01/24 12:58:45;;;;;;;17.60;11.70;;;;;;;1.49;100.00;101583.42;104573;1254;69233;-59
2023/01/24 13:01:15;;;;;;;16.70;11.70;;;;;;;1.50;100.00;101583.95;104382;1258;72335;-59
2023/01/24 13:04:13;;;;;;;15.80;10.60;;;;;;;1.47;100.00;101584.41;104764;1256;60329;-58
2023/01/24 13:06:57;;;;;;;16.70;11.10;;;;;;;1.45;100.00;101587.46;104702;1257;59726;-60
2023/01/24 13:09:52;;;;;;;14.60;10.60;;;;;;;1.50;100.00;101589.51;104318;1258;73068;-60
2023/01/24 13:12:23;;;;;;;14.20;10.40;;;;;;;1.50;100.00;101586.04;104495;1254;69770;-61
2023/01/24 13:14:55;;;;;;;14.20;10.50;;;;;;;1.41;100.00;101588.76;104795;1254;71925;-64
2023/01/24 13:17:29;;;;;;;15.30;10.30;;;;;;;1.37;100.00;101589.51;104905;1255;61320;-61
2023/01/24 13:20:03;;;;;;;13.30;9.90;;;;;;;1.36;100.00;101587.59;104603;1258;59702;-60
2023/01/24 13:22:41;;;;;;;14.70;10.40;;;;;;;1.39;100.00;101588.17;104533;1267;73096;-59
2023/01/24 13:25:24;;;;;;;;;;;;;;;1.41;100.00;101588.58;104601;1264;68599;-58
2023/01/24 13:28:17;;;;;;;20.50;11.10;;;;;;;1.38;100.00;101585.38;104503;1254;72056;-59
2023/01/24 13:31:13;;;;;;;12.10;9.00;;;;;;;1.41;100.00;101579.41;104729;1260;59793;-58
2023/01/24 13:33:52;;;;;;;15.00;9.80;;;;;;;1.45;100.00;101582.80;104716;1254;59800;-57
2023/01/24 13:36:27;;;;;;;13.40;9.70;;;;;;;1.47;100.00;101582.50;104766;1260;72379;-59
2023/01/24 13:38:56;;;;;;;11.30;9.20;;;;;;;1.48;100.00;101584.79;104406;1256;68660;-59
2023/01/24 13:41:25;;;;;;;12.90;9.40;;;;;;;1.50;100.00;101584.48;104391;1257;72084;-59
2023/01/24 13:44:01;;;;;;;13.80;10.10;;;;;;;1.49;100.00;101586.88;104591;1254;60846;-59
2023/01/24 13:46:43;;;;;;;12.60;9.90;;;;;;;1.49;100.00;101582.05;104689;1260;60065;-59
2023/01/24 13:49:29;;;;;;;13.20;9.50;;;;;;;1.45;100.00;101579.36;104750;1254;73450;-60
2023/01/24 13:52:02;;;;;;;13.80;9.50;;;;;;;1.41;100.00;101576.83;104715;1255;69577;-60
2023/01/24 13:54:43;;;;;;;16.00;9.90;;;;;;;1.36;100.00;101575.98;104307;1254;72810;-59
2023/01/24 13:57:24;;;;;;;16.10;10.80;;;;;;;1.33;100.00;101578.88;104464;1257;60112;-57
2023/01/24 13:59:58;;;;;;;14.70;10.30;;;;;;;1.26;100.00;101573.33;104774;1254;59749;-58
2023/01/24 18:11:36;;;;;;;19.20;10.60;;;;;;;-0.91;100.00;101550.05;103884;1283;64417;-61
2023/01/24 18:14:04;;;;;;;18.60;13.00;;;;;;;-0.67;100.00;101548.64;103513;1269;59629;-62
2023/01/24 18:16:33;;;;;;;19.50;13.10;;;;;;;-0.49;100.00;101547.84;103606;1272;72391;-61
2023/01/24 18:19:02;;;;;;;22.30;14.90;;;;;;;-0.32;100.00;101545.98;103607;1269;69916;-60
2023/01/24 18:21:31;;;;;;;20.40;14.00;;;;;;;-0.14;100.00;101541.52;103642;1269;124818;-60
2023/01/24 18:24:00;;;;;;;20.60;13.80;;;;;;;0.00;100.00;101541.80;103707;1272;59412;-62
2023/01/24 18:26:29;;;;;;;18.90;13.30;;;;;;;0.10;100.00;101536.93;103823;1269;60000;-62
2023/01/24 18:28:58;;;;;;;22.00;13.50;;;;;;;0.18;100.00;101536.13;103952;1269;71317;-63
2023/01/24 18:31:27;;;;;;;19.50;13.50;;;;;;;0.24;100.00;101536.48;103774;1266;69689;-63
2023/01/24 18:33:59;;;;;;;20.20;14.60;;;;;;;0.32;100.00;101534.83;103813;1265;72238;-62
2023/01/24 18:36:29;;;;;;;20.10;14.40;;;;;;;0.33;100.00;101533.85;103945;1281;61604;-62
2023/01/24 18:38:58;;;;;;;19.30;12.50;;;;;;;0.30;100.00;101534.59;104077;1266;59717;-62
2023/01/24 18:41:27;;;;;;;19.80;13.50;;;;;;;0.30;100.00;101531.48;104122;1266;72698;-62
2023/01/24 18:43:59;;;;;;;20.10;13.10;;;;;;;0.35;100.00;101533.37;104342;1266;69339;-62
2023/01/24 18:46:28;;;;;;;18.30;12.80;;;;;;;0.40;100.00;101534.02;103825;1279;73028;-61
2023/01/24 18:48:56;;;;;;;20.60;12.80;;;;;;;0.42;100.00;101533.73;104010;1265;61160;-61
2023/01/24 18:51:25;;;;;;;21.80;13.90;;;;;;;0.41;100.00;101532.16;103761;1265;59810;-61
2023/01/24 18:53:53;;;;;;;20.90;14.20;;;;;;;0.43;100.00;101534.27;103855;1266;72151;-60
2023/01/24 18:56:22;;;;;;;19.80;13.60;;;;;;;0.47;100.00;101535.77;103888;1266;69374;-62
2023/01/24 18:58:51;;;;;;;22.60;13.70;;;;;;;0.52;100.00;101537.48;104070;1265;72756;-60
2023/01/24 19:01:22;;;;;;;20.80;13.80;;;;;;;0.54;100.00;101542.89;104252;1265;59924;-60
2023/01/24 19:03:50;;;;;;;19.90;12.80;;;;;;;0.54;100.00;101544.08;103820;1266;60078;-61
2023/01/24 19:06:32;;;;;;;23.70;15.00;;;;;;;0.57;100.00;101539.67;103692;1266;72571;-60
2023/01/24 19:09:06;;;;;;;25.20;15.30;;;;;;;0.63;100.00;101534.15;103782;1278;69156;-61
2023/01/24 19:11:36;;;;;;;25.50;15.50;;;;;;;0.66;100.00;101531.83;104265;1260;72792;-61
2023/01/24 19:14:05;;;;;;;19.40;13.50;;;;;;;0.67;100.00;101533.77;104450;1262;61430;-60
2023/01/24 19:16:35;;;;;;;22.10;14.10;;;;;;;0.68;100.00;101534.30;103913;1260;60362;-60
2023/01/24 19:19:04;;;;;;;19.10;12.80;;;;;;;0.72;100.00;101537.16;104084;1262;73698;-61
2023/01/24 19:21:34;;;;;;;17.50;12.60;;;;;;;0.76;100.00;101538.48;104538;1262;69632;-61
2023/01/24 19:24:03;;;;;;;17.90;12.30;;;;;;;0.78;100.00;101540.29;104084;1260;72106;-62
2023/01/24 19:26:31;;;;;;;21.30;13.20;;;;;;;0.81;100.00;101539.66;104217;1260;60650;-63
2023/01/24 19:29:00;;;;;;;18.80;11.90;;;;;;;0.83;100.00;101535.04;104051;1275;61370;-61
2023/01/24 19:31:30;;;;;;;19.30;11.60;;;;;;;0.84;100.00;101533.16;104431;1262;72505;-61
2023/01/24 19:33:59;;;;;;;16.80;11.50;;;;;;;0.85;100.00;101532.00;104313;1259;68445;-62
2023/01/24 19:36:27;;;;;;;18.60;12.80;;;;;;;0.88;100.00;101533.64;103974;1262;71400;-60
2023/01/24 19:38:56;;;;;;;18.30;12.40;;;;;;;0.92;100.00;101531.31;104263;1259;61089;-62
2023/01/24 19:41:25;;;;;;;16.30;12.30;;;;;;;0.95;100.00;101531.93;104169;1263;59673;-61
2023/01/24 19:43:57;;;;;;;15.40;11.40;;;;;;;0.98;100.00;101536.30;104055;1260;72575;-62
2023/01/24 19:46:47;;;;;;;21.20;13.10;;;;;;;0.97;100.00;101535.42;103998;1270;68878;-61
2023/01/24 19:49:16;;;;;;;18.50;12.80;;;;;;;0.98;100.00;101534.41;103989;1273;72657;-62
2023/01/24 19:51:45;;;;;;;21.60;13.20;;;;;;;0.97;100.00;101534.91;104294;1273;61372;-62
2023/01/24 19:54:14;;;;;;;20.70;13.00;;;;;;;0.98;100.00;101535.11;104148;1261;59696;-62
2023/01/24 19:56:42;;;;;;;20.10;12.80;;;;;;;0.99;100.00;101538.59;104138;1257;72366;-60
2023/01/24 19:59:15;;;;;;;23.70;13.30;;;;;;;1.01;100.00;101540.70;104068;1276;69130;-61
2023/01/24 20:01:43;;;;;;;22.60;14.00;;;;;;;1.02;100.00;101547.98;104295;1266;71870;-61
2023/01/24 20:04:11;;;;;;;18.80;12.10;;;;;;;1.01;100.00;101549.70;104180;1257;61490;-60
2023/01/24 20:07:00;;;;;;;20.10;13.00;;;;;;;0.98;100.00;101554.10;104294;1266;59781;-60
2023/01/24 20:09:30;;;;;;;19.90;13.50;;;;;;;0.95;100.00;101553.69;104313;1260;72435;-62
2023/01/24 20:11:59;;;;;;;17.60;12.70;;;;;;;0.97;100.00;101550.27;104260;1262;70321;-61
2023/01/24 20:14:27;;;;;;;20.50;13.50;;;;;;;1.02;100.00;101547.29;104438;1254;72077;-60
2023/01/24 20:16:56;;;;;;;22.40;14.80;;;;;;;1.05;100.00;101546.69;104469;1255;61126;-61
2023/01/24 20:19:24;;;;;;;20.10;13.60;;;;;;;1.07;100.00;101548.13;104413;1258;59750;-62
2023/01/24 20:21:57;;;;;;;21.70;14.40;;;;;;;1.07;100.00;101545.71;104307;1259;71922;-60
2023/01/24 20:24:26;;;;;;;22.10;13.40;;;;;;;1.10;100.00;101548.89;104598;1272;68708;-60
2023/01/24 20:26:54;;;;;;;24.00;14.30;;;;;;;1.18;100.00;101547.20;104572;1270;72687;-60
2023/01/24 20:29:23;;;;;;;21.70;14.10;;;;;;;1.23;100.00;101545.59;104432;1260;59750;-61
2023/01/24 20:31:51;;;;;;;22.80;14.00;;;;;;;1.24;100.00;101550.13;104520;1259;59621;-60
2023/01/24 20:34:22;;;;;;;24.00;15.00;;;;;;;1.23;100.00;101552.34;104431;1259;73144;-61
2023/01/24 20:36:51;;;;;;;21.10;15.00;;;;;;;1.26;100.00;101548.79;104435;1259;68579;-61
2023/01/24 20:39:20;;;;;;;25.40;14.40;;;;;;;1.35;100.00;101552.64;104455;1265;72284;-65
2023/01/24 20:41:49;;;;;;;20.60;13.50;;;;;;;1.34;100.00;101552.45;104588;1254;60687;-61
2023/01/24 20:44:18;;;;;;;20.20;13.90;;;;;;;1.30;100.00;101553.58;104342;1271;59855;-60
2023/01/24 20:46:55;;;;;;;21.90;13.30;;;;;;;1.27;100.00;101548.98;104353;1259;71548;-61
2023/01/24 20:49:23;;;;;;;19.10;13.40;;;;;;;1.21;100.00;101548.33;104295;1257;69710;-61
2023/01/24 20:51:52;;;;;;;21.40;13.50;;;;;;;1.22;100.00;101550.25;104425;1258;72368;-61
2023/01/24 20:54:21;;;;;;;23.00;14.70;;;;;;;1.29;100.00;101550.08;104336;1254;60452;-61
2023/01/24 20:56:59;;;;;;;26.50;16.30;;;;;;;1.33;100.00;101549.50;104354;1272;60416;-61
2023/01/24 20:59:28;;;;;;;24.20;15.50;;;;;;;1.37;100.00;101552.54;104386;1256;74434;-60
2023/01/24 21:01:56;;;;;;;22.30;14.10;;;;;;;1.36;100.00;101548.19;104374;1266;70262;-61
2023/01/24 21:04:27;;;;;;;22.50;15.50;;;;;;;1.28;100.00;101546.92;104352;1278;73890;-64
2023/01/24 21:06:56;;;;;;;26.90;14.50;;;;;;;1.24;100.00;101543.57;104398;1254;61462;-60
2023/01/24 21:09:25;;;;;;;23.80;14.60;;;;;;;1.27;100.00;101542.77;104429;1255;61432;-62
2023/01/24 21:11:53;;;;;;;20.60;14.20;;;;;;;1.28;100.00;101546.27;104409;1259;74319;-61
2023/01/24 21:14:23;;;;;;;20.00;13.70;;;;;;;1.30;100.00;101548.20;104370;1256;71229;-61
2023/01/24 21:16:51;;;;;;;19.70;14.40;;;;;;;1.30;100.00;101549.23;104444;1259;71992;-64
2023/01/24 21:19:20;;;;;;;23.00;15.40;;;;;;;1.32;100.00;101543.07;104468;1259;62234;-60
2023/01/24 21:21:51;;;;;;;26.50;16.90;;;;;;;1.38;100.00;101541.33;104487;1259;61149;-60
2023/01/24 21:24:19;;;;;;;26.20;15.50;;;;;;;1.37;100.00;101537.14;104409;1257;73466;-63
2023/01/24 21:27:01;;;;;;;21.80;14.30;;;;;;;1.32;100.00;101539.27;104283;1257;69300;-59
2023/01/24 21:29:29;;;;;;;21.20;14.40;;;;;;;1.26;100.00;101540.68;104378;1259;72826;-60
2023/01/24 21:31:58;;;;;;;22.10;14.70;;;;;;;1.26;100.00;101540.16;104551;1259;60541;-61
2023/01/24 21:34:27;;;;;;;22.30;15.20;;;;;;;1.29;100.00;101536.77;104338;1254;60249;-60
2023/01/24 21:36:56;;;;;;;20.40;14.80;;;;;;;1.31;100.00;101536.98;104460;1256;72255;-60
2023/01/24 21:39:25;;;;;;;21.90;14.30;;;;;;;1.33;100.00;101534.12;104497;1257;68814;-61
2023/01/24 21:41:53;;;;;;;25.10;15.50;;;;;;;1.32;100.00;101534.45;104437;1254;72287;-59
2023/01/24 21:44:28;;;;;;;23.00;15.10;;;;;;;1.35;100.00;101527.59;104489;1259;61067;-59
